KCKN/CKN METAR and TAF weather

Enter ICAO airport designator
Station Type Date Time Source
KCKN METAR 2020/09/18 22:35 UTC NOAA

KCKN 182235Z AUTO 19012KT 10SM CLR 19/06 A3019 RMK AO2


Station Type Date Time Source
KCKN Decoded METAR 2020/09/18 22:35 UTC NOAA

Crookston Municipal Field, MN, United States (KCKN) 47-51N 096-37W
Sep 18, 2020 - 06:35 PM EDT / 2020.09.18 2235 UTC
Wind: from the S (190 degrees) at 14 MPH (12 KT):0
Visibility: 10 mile(s):0
Sky conditions: clear
Temperature: 66 F (19 C)
Dew Point: 42 F (6 C)
Relative Humidity: 42%
Pressure (altimeter): 30.19 in. Hg (1022 hPa)
ob: KCKN 182235Z AUTO 19012KT 10SM CLR 19/06 A3019 RMK AO2
cycle: 22

Station Type Date Time Source
KCKN TAF UTC NOAA

Error!

Example: see airport list